Time;durP1;ratioP1;P1;durP2;ratioP2;P2;SDS_P1;SDS_P2;PMS_P1;PMS_P2;Temp;Humidity;BMP_temperature;BMP_pressure;BME280_temperature;BME280_humidity;BME280_pressure;Samples;Min_cycle;Max_cycle;Signal;HPM_P1;HPM_P2
2024/04/14 13:31:56;;;;;;;2.60;1.20;;;20.30;96.80;;;;;;5707523;23;20721;-75
2024/04/14 13:34:22;;;;;;;2.42;1.17;;;20.40;97.30;;;;;;4895483;29;20665;-73
2024/04/14 13:36:48;;;;;;;1.73;1.10;;;20.10;97.80;;;;;;4890844;29;20262;-73
2024/04/14 13:39:14;;;;;;;3.08;1.20;;;19.90;98.30;;;;;;4895688;29;20236;-74
2024/04/14 13:41:41;;;;;;;4.43;1.38;;;19.80;99.00;;;;;;4890772;29;20239;-75
2024/04/14 13:44:07;;;;;;;2.42;0.90;;;19.90;98.10;;;;;;4876897;29;20238;-74
2024/04/14 13:46:34;;;;;;;1.35;0.70;;;20.20;97.60;;;;;;4872724;29;20326;-76
2024/04/14 13:49:02;;;;;;;5.00;1.13;;;20.40;97.50;;;;;;4877824;29;20263;-73
2024/04/14 13:51:29;;;;;;;2.67;0.95;;;20.30;97.40;;;;;;4877384;29;20724;-73
2024/04/14 13:53:54;;;;;;;2.10;1.00;;;20.30;97.00;;;;;;4877535;29;20211;-74
2024/04/14 13:56:21;;;;;;;1.58;0.80;;;20.40;97.20;;;;;;4871340;29;20217;-72
2024/04/14 13:58:50;;;;;;;2.22;0.88;;;20.30;97.30;;;;;;4877753;29;20238;-73
2024/04/14 14:01:17;;;;;;;2.38;1.00;;;20.30;97.20;;;;;;4877643;29;20710;-75
2024/04/14 14:03:44;;;;;;;3.65;1.30;;;20.30;98.00;;;;;;4866495;29;20297;-73
2024/04/14 14:06:12;;;;;;;6.07;1.27;;;20.10;98.40;;;;;;4870276;29;20246;-75
2024/04/14 14:08:38;;;;;;;3.13;1.30;;;19.90;97.60;;;;;;4877447;29;20215;-75
2024/04/14 14:11:05;;;;;;;3.20;1.13;;;20.10;97.00;;;;;;4877150;29;20207;-73
2024/04/14 14:13:31;;;;;;;2.28;0.90;;;20.20;98.00;;;;;;4877239;29;20235;-75
2024/04/14 14:15:58;;;;;;;2.90;1.15;;;20.00;98.10;;;;;;4869799;29;20275;-74
2024/04/14 14:18:24;;;;;;;3.17;1.00;;;20.00;97.70;;;;;;4877324;29;20225;-74
2024/04/14 14:20:52;;;;;;;1.83;0.80;;;19.80;98.60;;;;;;4874472;29;20586;-73
2024/04/14 14:23:19;;;;;;;1.33;1.00;;;19.70;98.70;;;;;;4868173;29;20291;-74
2024/04/14 14:25:46;;;;;;;1.95;1.00;;;19.80;98.60;;;;;;4871564;29;20330;-77
2024/04/14 14:28:12;;;;;;;1.55;1.00;;;19.70;98.50;;;;;;4867381;29;20281;-75
2024/04/14 14:30:39;;;;;;;3.92;1.27;;;19.70;98.50;;;;;;4868314;29;20674;-73
2024/04/14 14:36:20;;;;;;;2.58;1.05;;;19.80;99.10;;;;;;4866943;29;20266;-77
2024/04/14 14:38:41;;;;;;;2.60;1.15;;;20.00;98.80;;;;;;4877103;29;20226;-74
2024/04/14 14:41:11;;;;;;;3.03;0.95;;;19.80;99.00;;;;;;4884012;29;20211;-75
2024/04/14 14:43:38;;;;;;;4.03;0.93;;;19.70;99.60;;;;;;4888588;29;20215;-75
2024/04/14 14:46:04;;;;;;;3.75;1.00;;;19.70;98.90;;;;;;4868527;29;20235;-76
2024/04/14 14:48:31;;;;;;;3.10;1.02;;;19.70;98.80;;;;;;4877792;29;20245;-74
2024/04/14 14:50:57;;;;;;;1.90;1.10;;;19.70;98.50;;;;;;4876752;29;20239;-73
2024/04/14 14:53:24;;;;;;;2.70;1.27;;;19.60;98.80;;;;;;4877075;29;20270;-76
2024/04/14 14:55:51;;;;;;;1.88;1.10;;;19.50;98.80;;;;;;4868313;29;20211;-79
2024/04/14 14:58:18;;;;;;;3.33;1.17;;;19.30;99.90;;;;;;4866622;29;20561;-75
2024/04/14 15:00:44;;;;;;;1.88;1.00;;;19.50;99.80;;;;;;4870335;29;20207;-74
2024/04/14 15:03:11;;;;;;;2.38;1.13;;;19.60;98.80;;;;;;4876745;29;20409;-73
2024/04/14 15:05:37;;;;;;;2.72;0.90;;;19.70;98.60;;;;;;4867299;29;20331;-74
2024/04/14 15:08:05;;;;;;;2.38;1.02;;;19.40;99.30;;;;;;4877101;29;20290;-72
2024/04/14 15:10:41;;;;;;;3.05;1.10;;;19.50;99.30;;;;;;4877033;29;20294;-77
2024/04/14 15:13:10;;;;;;;2.75;0.85;;;19.40;98.60;;;;;;4876534;29;20231;-77
2024/04/14 15:15:36;;;;;;;2.88;0.98;;;19.40;99.00;;;;;;4869428;29;20224;-74
2024/04/14 15:18:03;;;;;;;2.80;0.98;;;19.40;98.80;;;;;;4879837;29;20259;-74
2024/04/14 15:20:29;;;;;;;1.77;0.85;;;19.30;98.80;;;;;;4880216;29;20318;-75
2024/04/14 15:22:56;;;;;;;2.60;0.93;;;19.20;98.90;;;;;;4879974;29;20318;-73
2024/04/14 15:25:25;;;;;;;1.67;1.00;;;19.30;98.70;;;;;;4863289;29;20320;-73
2024/04/14 15:27:52;;;;;;;2.13;1.00;;;19.30;99.10;;;;;;4879589;29;20203;-82
2024/04/14 15:30:19;;;;;;;4.28;1.20;;;19.50;98.90;;;;;;4880347;29;20234;-73
2024/04/14 15:32:48;;;;;;;4.13;1.17;;;19.50;98.90;;;;;;4879440;29;20235;-76
2024/04/14 15:35:14;;;;;;;4.95;1.27;;;19.70;99.10;;;;;;4871177;29;20751;-73
2024/04/14 15:37:41;;;;;;;3.67;1.20;;;19.50;99.70;;;;;;4877831;29;20225;-75
2024/04/14 15:40:10;;;;;;;7.20;1.35;;;19.60;99.80;;;;;;4879629;29;20267;-75
2024/04/14 15:42:36;;;;;;;2.97;1.05;;;19.60;99.30;;;;;;4895915;29;20234;-73
2024/04/14 15:45:03;;;;;;;1.60;0.98;;;19.70;99.80;;;;;;4873223;29;20742;-74
2024/04/14 15:47:31;;;;;;;2.78;1.08;;;19.50;99.60;;;;;;4875926;29;20227;-75
2024/04/14 15:49:57;;;;;;;2.75;1.40;;;19.30;99.90;;;;;;4880131;29;20215;-76
2024/04/14 15:52:25;;;;;;;3.08;0.95;;;19.30;99.60;;;;;;4875218;29;20643;-77
2024/04/14 15:54:51;;;;;;;3.65;1.20;;;19.10;99.80;;;;;;4873472;29;20220;-79
2024/04/14 15:57:18;;;;;;;4.15;1.13;;;19.10;99.80;;;;;;4873506;29;20437;-76
2024/04/14 15:59:44;;;;;;;2.22;1.20;;;18.90;99.90;;;;;;4879925;29;20268;-74
2024/04/14 16:02:11;;;;;;;3.28;1.15;;;19.10;99.90;;;;;;4873182;29;20320;-73
2024/04/14 16:04:39;;;;;;;1.80;0.90;;;18.90;99.90;;;;;;4868618;29;20207;-74
2024/04/14 16:07:06;;;;;;;2.25;1.20;;;18.80;99.90;;;;;;4870590;29;20713;-75
2024/04/14 16:09:33;;;;;;;3.50;1.02;;;18.90;99.90;;;;;;4870167;29;20663;-75
2024/04/14 16:12:00;;;;;;;4.03;1.13;;;19.00;99.90;;;;;;4872182;29;20594;-74
2024/04/14 16:14:26;;;;;;;3.40;1.27;;;19.00;99.90;;;;;;4868221;29;20260;-76
2024/04/14 16:16:53;;;;;;;3.58;1.00;;;18.90;99.70;;;;;;4870262;29;20215;-75
2024/04/14 16:19:18;;;;;;;2.08;0.90;;;18.80;99.90;;;;;;4880073;29;20297;-76
2024/04/14 16:21:47;;;;;;;1.52;1.00;;;18.90;99.90;;;;;;4874324;29;20397;-73
2024/04/14 16:24:13;;;;;;;3.13;1.00;;;18.70;99.90;;;;;;4880764;29;20298;-72
2024/04/14 16:26:39;;;;;;;2.53;1.30;;;18.60;99.90;;;;;;4880093;29;20736;-72
2024/04/14 16:29:05;;;;;;;2.30;1.15;;;18.40;99.90;;;;;;4880848;29;20306;-76
2024/04/14 16:31:32;;;;;;;2.95;1.30;;;18.40;99.90;;;;;;4879077;29;20327;-72
2024/04/14 16:33:59;;;;;;;2.65;1.20;;;18.60;99.90;;;;;;4880040;29;20582;-73
2024/04/14 16:36:26;;;;;;;3.17;1.20;;;18.90;99.90;;;;;;4880111;29;20215;-72
2024/04/14 16:38:53;;;;;;;2.15;1.30;;;18.90;99.90;;;;;;4880524;29;20298;-72
2024/04/14 16:41:25;;;;;;;4.20;1.20;;;18.70;99.90;;;;;;4880172;29;20215;-73
2024/04/14 16:43:51;;;;;;;4.70;1.20;;;18.80;99.90;;;;;;4880477;29;20238;-73
2024/04/14 16:46:18;;;;;;;2.83;1.50;;;18.60;99.90;;;;;;4880234;29;20246;-72
2024/04/14 16:48:44;;;;;;;3.50;1.10;;;18.40;99.90;;;;;;4880180;29;20215;-72
2024/04/14 16:51:11;;;;;;;3.20;1.45;;;18.40;99.90;;;;;;4879981;29;20208;-76
2024/04/14 16:53:36;;;;;;;2.67;1.27;;;18.30;99.90;;;;;;4879983;29;20235;-72
2024/04/14 16:56:06;;;;;;;4.03;1.48;;;18.30;99.90;;;;;;4880406;29;20693;-72
2024/04/14 16:58:32;;;;;;;4.30;1.30;;;18.00;99.90;;;;;;4879829;29;20243;-72
2024/04/14 17:00:59;;;;;;;3.78;1.33;;;18.10;99.90;;;;;;4879929;29;20701;-73
2024/04/14 17:03:25;;;;;;;2.40;1.70;;;18.10;99.90;;;;;;4879019;29;20318;-73
2024/04/14 17:05:52;;;;;;;4.85;1.50;;;18.20;99.90;;;;;;4879605;29;20321;-72
2024/04/14 17:08:17;;;;;;;4.43;1.60;;;18.10;99.90;;;;;;4880066;29;20242;-75
2024/04/14 17:10:46;;;;;;;3.05;1.50;;;18.10;99.90;;;;;;4880026;29;20336;-73
2024/04/14 17:13:13;;;;;;;2.45;1.63;;;18.00;99.90;;;;;;4879511;29;20266;-72
2024/04/14 17:15:40;;;;;;;2.60;1.60;;;18.00;99.90;;;;;;4879696;29;20627;-72
2024/04/14 17:18:06;;;;;;;3.17;1.40;;;17.90;99.90;;;;;;4879993;29;20243;-72
2024/04/14 17:20:33;;;;;;;2.28;1.52;;;18.00;99.90;;;;;;4879857;29;20254;-72
2024/04/14 17:22:59;;;;;;;3.40;1.98;;;17.80;99.90;;;;;;4869391;29;20267;-73
2024/04/14 17:25:26;;;;;;;2.13;1.43;;;17.70;99.90;;;;;;4863220;29;20664;-72
2024/04/14 17:27:52;;;;;;;2.73;1.70;;;17.50;99.90;;;;;;4862881;29;20298;-73
2024/04/14 17:30:20;;;;;;;4.20;1.38;;;17.50;99.90;;;;;;4874752;29;20247;-72
2024/04/14 17:32:46;;;;;;;2.10;1.58;;;17.40;99.90;;;;;;4867479;29;20275;-72
2024/04/14 17:35:13;;;;;;;2.58;1.55;;;17.40;99.90;;;;;;4878788;29;20651;-72
2024/04/14 17:37:39;;;;;;;4.45;1.35;;;17.40;99.90;;;;;;4877690;29;20243;-72
2024/04/14 17:40:07;;;;;;;3.35;1.63;;;17.40;99.90;;;;;;4868495;29;20254;-73
2024/04/14 17:42:33;;;;;;;4.05;1.45;;;17.40;99.90;;;;;;4877074;29;20227;-71
2024/04/14 17:45:00;;;;;;;2.00;1.40;;;17.40;99.90;;;;;;4878815;29;20299;-71
2024/04/14 17:47:27;;;;;;;3.17;1.30;;;17.30;99.90;;;;;;4878524;29;20263;-72
2024/04/14 17:49:54;;;;;;;5.55;1.30;;;17.10;99.90;;;;;;4878625;29;20215;-72
2024/04/14 17:52:20;;;;;;;5.57;1.67;;;17.10;99.90;;;;;;4876248;29;20285;-72
2024/04/14 17:54:47;;;;;;;3.27;1.60;;;17.10;99.90;;;;;;4865309;29;20234;-71
2024/04/14 17:57:13;;;;;;;4.65;1.55;;;17.10;99.90;;;;;;4867756;29;20254;-72
2024/04/14 17:59:40;;;;;;;2.57;1.30;;;16.90;99.90;;;;;;4876624;29;20243;-72
2024/04/14 18:02:05;;;;;;;2.75;1.23;;;16.90;99.90;;;;;;4878796;29;20262;-71
2024/04/14 18:04:34;;;;;;;3.65;2.00;;;16.90;99.90;;;;;;4878890;29;20683;-72
2024/04/14 18:07:00;;;;;;;3.87;1.60;;;17.00;99.90;;;;;;4878560;29;20330;-72
2024/04/14 18:09:26;;;;;;;2.63;1.52;;;17.00;99.90;;;;;;4878515;29;20727;-74
2024/04/14 18:11:53;;;;;;;1.73;1.20;;;17.10;99.90;;;;;;4878942;29;20318;-72
2024/04/14 18:14:20;;;;;;;3.30;1.65;;;17.20;99.90;;;;;;4878531;29;20211;-72
2024/04/14 18:16:46;;;;;;;2.13;1.37;;;17.10;99.90;;;;;;4878479;29;20643;-72
2024/04/14 18:19:12;;;;;;;3.25;1.88;;;17.10;99.90;;;;;;4878312;29;20249;-72
2024/04/14 18:21:41;;;;;;;2.72;1.40;;;17.10;99.90;;;;;;4878662;29;20270;-75
2024/04/14 18:24:08;;;;;;;4.82;1.50;;;17.00;99.90;;;;;;4869355;29;20268;-74
2024/04/14 18:26:36;;;;;;;3.70;1.50;;;17.00;99.90;;;;;;4871932;29;20329;-72
2024/04/14 18:29:04;;;;;;;7.10;1.70;;;16.90;99.90;;;;;;4877946;29;20207;-72
2024/04/14 18:31:29;;;;;;;4.93;1.77;;;16.80;99.90;;;;;;4878393;29;20226;-72
2024/04/14 18:33:56;;;;;;;6.47;2.30;;;16.90;99.90;;;;;;4871341;29;20267;-73
2024/04/14 18:36:22;;;;;;;3.77;1.83;;;16.80;99.90;;;;;;4870523;29;20239;-73
2024/04/14 18:38:50;;;;;;;3.30;1.50;;;16.80;99.90;;;;;;4872502;29;20265;-73
2024/04/14 18:41:16;;;;;;;2.80;1.47;;;16.80;99.90;;;;;;4873760;29;20294;-74
2024/04/14 18:43:43;;;;;;;6.27;1.90;;;16.80;99.90;;;;;;4876703;29;20313;-72
2024/04/14 18:46:10;;;;;;;6.17;2.37;;;16.80;99.90;;;;;;4877189;29;20326;-72
2024/04/14 18:48:39;;;;;;;5.23;1.83;;;16.70;99.90;;;;;;4878318;29;20211;-73
2024/04/14 18:51:06;;;;;;;2.97;1.43;;;16.60;99.90;;;;;;4881035;29;20263;-72
2024/04/14 18:53:33;;;;;;;6.05;1.92;;;16.70;99.90;;;;;;4880794;29;20726;-72
2024/04/14 18:56:01;;;;;;;3.87;1.90;;;16.70;99.90;;;;;;4881059;29;20638;-72
2024/04/14 18:58:29;;;;;;;2.70;1.40;;;16.60;99.90;;;;;;4868786;29;20287;-72
2024/04/14 19:00:55;;;;;;;4.53;1.40;;;16.60;99.90;;;;;;4870243;29;20242;-72
2024/04/14 19:03:22;;;;;;;5.07;1.60;;;16.60;99.90;;;;;;4876881;29;20596;-72
2024/04/14 19:05:49;;;;;;;4.83;1.43;;;16.60;99.90;;;;;;4876157;29;20758;-72
2024/04/14 19:08:17;;;;;;;4.13;1.37;;;16.60;99.90;;;;;;4876761;29;20211;-73
2024/04/14 19:10:43;;;;;;;4.57;1.10;;;16.60;99.90;;;;;;4879646;29;20316;-72
2024/04/14 19:13:13;;;;;;;1.77;0.90;;;16.50;99.90;;;;;;4880792;29;20745;-73
2024/04/14 19:15:39;;;;;;;1.97;0.70;;;16.10;99.90;;;;;;4881374;29;20306;-75
2024/04/14 19:18:06;;;;;;;3.67;0.70;;;15.90;99.90;;;;;;4881280;29;20297;-72
2024/04/14 19:20:32;;;;;;;2.53;0.87;;;15.70;99.90;;;;;;4880675;29;20290;-72
2024/04/14 19:22:58;;;;;;;2.70;0.83;;;15.40;99.90;;;;;;4876203;29;20310;-73
2024/04/14 19:25:24;;;;;;;3.30;1.43;;;15.10;99.90;;;;;;4879878;29;20612;-72
2024/04/14 19:27:51;;;;;;;3.67;1.70;;;15.20;99.90;;;;;;4874912;29;20326;-72
2024/04/14 19:30:18;;;;;;;5.70;0.97;;;15.10;99.90;;;;;;4877718;29;20250;-75
2024/04/14 19:32:45;;;;;;;5.40;0.90;;;15.10;99.90;;;;;;4898111;23;20252;-70
2024/04/14 19:35:11;;;;;;;1.97;0.90;;;14.90;99.90;;;;;;4899033;29;20241;-69
2024/04/14 19:37:38;;;;;;;3.57;0.67;;;14.90;99.90;;;;;;4899105;29;20256;-69
2024/04/14 19:40:05;;;;;;;3.17;0.70;;;14.70;99.90;;;;;;4899408;29;20705;-70
2024/04/14 19:42:32;;;;;;;3.53;0.80;;;14.60;99.90;;;;;;4888847;29;20243;-69
2024/04/14 19:44:58;;;;;;;3.10;0.87;;;14.60;99.90;;;;;;4884392;29;20222;-69
2024/04/14 19:47:26;;;;;;;3.87;0.80;;;14.70;99.90;;;;;;4887658;29;20246;-75
2024/04/14 19:49:52;;;;;;;1.20;0.50;;;14.50;99.90;;;;;;4889146;29;20231;-69
2024/04/14 19:52:19;;;;;;;3.03;1.00;;;14.40;99.90;;;;;;4888908;29;20336;-74
2024/04/14 19:54:51;;;;;;;3.70;0.90;;;14.40;99.90;;;;;;4889426;29;20290;-72
2024/04/14 19:57:17;;;;;;;2.70;0.90;;;14.40;99.90;;;;;;4886130;29;20207;-69
2024/04/14 19:59:43;;;;;;;3.77;0.73;;;14.30;99.90;;;;;;4885352;29;20654;-70
2024/04/14 20:02:10;;;;;;;2.73;0.70;;;14.30;99.90;;;;;;4888735;29;20317;-69
2024/04/14 20:04:38;;;;;;;2.97;1.03;;;14.40;99.90;;;;;;4888183;29;20211;-68
2024/04/14 20:07:05;;;;;;;5.87;0.77;;;14.40;99.90;;;;;;4881315;29;20234;-69
2024/04/14 20:09:31;;;;;;;1.70;0.80;;;14.40;99.90;;;;;;4886191;29;20667;-74
2024/04/14 20:11:57;;;;;;;2.00;0.87;;;14.30;99.90;;;;;;4890283;29;20226;-69
2024/04/14 20:14:24;;;;;;;4.07;0.67;;;14.20;99.90;;;;;;4885927;29;20324;-69
2024/04/14 20:16:51;;;;;;;3.77;0.70;;;14.20;99.90;;;;;;4890002;29;20206;-69
2024/04/14 20:19:17;;;;;;;3.20;0.83;;;14.20;99.90;;;;;;4886361;29;20303;-73
2024/04/14 20:21:45;;;;;;;3.47;0.90;;;14.10;99.90;;;;;;4879713;29;20318;-69
2024/04/14 20:24:11;;;;;;;5.97;1.57;;;14.20;99.90;;;;;;4879846;29;20913;-70
2024/04/14 20:26:38;;;;;;;4.43;0.97;;;14.30;99.90;;;;;;4880638;29;20326;-70
2024/04/14 20:29:07;;;;;;;3.43;0.80;;;14.20;99.90;;;;;;4881611;29;20301;-72
2024/04/14 20:31:34;;;;;;;3.40;0.90;;;14.20;99.90;;;;;;4879461;29;21315;-69
2024/04/14 20:34:00;;;;;;;2.77;0.90;;;14.00;99.90;;;;;;4869592;29;20246;-68
2024/04/14 20:36:27;;;;;;;5.40;0.90;;;14.00;99.90;;;;;;4880008;29;20636;-69
2024/04/14 20:38:56;;;;;;;3.27;0.87;;;14.00;99.90;;;;;;4871005;29;20242;-69
2024/04/14 20:41:23;;;;;;;5.33;1.00;;;13.90;99.90;;;;;;4874207;29;20219;-73
2024/04/14 20:43:50;;;;;;;4.23;1.07;;;13.90;99.90;;;;;;4897572;29;20215;-69
2024/04/14 20:46:18;;;;;;;2.27;0.80;;;13.90;99.90;;;;;;4897108;29;20675;-73
2024/04/14 20:48:44;;;;;;;2.97;0.97;;;13.80;99.90;;;;;;4897361;29;20218;-74
2024/04/14 20:51:11;;;;;;;3.07;0.70;;;13.80;99.90;;;;;;4884720;29;20619;-70
2024/04/14 20:53:37;;;;;;;2.43;0.60;;;13.80;99.90;;;;;;4885790;29;20215;-70
2024/04/14 20:56:06;;;;;;;2.63;0.70;;;13.70;99.90;;;;;;4889698;29;20210;-71
2024/04/14 20:58:32;;;;;;;2.40;0.47;;;13.70;99.90;;;;;;4886748;29;20746;-73
2024/04/14 21:01:04;;;;;;;3.67;1.07;;;13.70;99.90;;;;;;4889296;29;20306;-70
2024/04/14 21:03:30;;;;;;;4.60;0.93;;;13.70;99.90;;;;;;4879006;29;20294;-70
2024/04/14 21:05:56;;;;;;;3.87;0.90;;;13.70;99.90;;;;;;4873712;29;20660;-70
2024/04/14 21:08:22;;;;;;;3.00;1.40;;;13.60;99.90;;;;;;4877036;29;20250;-70
2024/04/14 21:11:00;;;;;;;1.53;0.57;;;13.70;99.90;;;;;;4878853;29;20215;-70
2024/04/14 21:13:28;;;;;;;1.77;0.50;;;13.60;99.90;;;;;;4875265;29;20292;-70
2024/04/14 21:15:54;;;;;;;5.53;0.70;;;13.60;99.90;;;;;;4874565;29;20211;-69
2024/04/14 21:18:20;;;;;;;2.90;0.70;;;13.60;99.90;;;;;;4878618;29;20306;-70
2024/04/14 21:20:54;;;;;;;4.00;0.60;;;13.60;99.90;;;;;;4875628;29;20291;-71
2024/04/14 21:23:20;;;;;;;1.20;0.50;;;13.50;99.90;;;;;;4874479;29;20262;-70
2024/04/14 21:25:47;;;;;;;2.67;0.60;;;13.30;99.90;;;;;;4879327;29;20249;-70
